Afton Lake, New York
Current Conditions -  °F | °C
As of 9:53 PM on Friday 21 Nov 2014 (Local Time) from KBGM Reporting Station
Clear Clear  
Wind Chill:   Ceiling: Unl
Heat Index: 18°   Visibility: 10mi
Dew Point:   Wind: 7mph
Humidity: 68%   Direction: 250°WSW
Pressure: 30.37"   Gusts: NA
Location:  42.2584°N, 75.57°W
Report Text: KBGM 220253Z 25006KT 10SM CLR M08/M13 A3037 RMK AO2 SLP312 T10781128 51001
Loading
Personal Weather Stations






























Interactive Weather Map New forecast layout! Learn more

10-Day Weather Forecast

Advertisements
Track Severe Weather on mobile